Pindall, Arkansas
Current Conditions -  °F | °C
As of 8:53 AM on Sunday 21 Dec 2014 (Local Time) from KHRO Reporting Station
Overcast Overcast  
Wind Chill: 32°   Ceiling: 2800
Heat Index: 39°   Visibility: 7mi
Dew Point: 38°   Wind: 10mph
Humidity: 96%   Direction: 150°SSE
Pressure: 30.12"   Gusts: NA
Location:  36.07°N, 92.88°W
Report Text: KHRO 211453Z AUTO 15009KT 7SM OVC028 04/03 A3012 RMK AO2 SLP205 T00390033 58007 $
Loading
Personal Weather Stations






























Interactive Weather Map New forecast layout! Learn more

10-Day Weather Forecast

Advertisements
Track Severe Weather on mobile